Time;durP1;ratioP1;P1;durP2;ratioP2;P2;SDS_P1;SDS_P2;PMS_P1;PMS_P2;Temp;Humidity;BMP_temperature;BMP_pressure;BME280_temperature;BME280_humidity;BME280_pressure;Samples;Min_cycle;Max_cycle;Signal;HPM_P1;HPM_P2
2022/05/25 00:01:20;;;;;;;4.05;1.58;;;11.30;99.90;;;;;;5074491;28;20142;-54
2022/05/25 00:03:46;;;;;;;3.88;1.80;;;11.40;99.90;;;;;;5074583;28;20111;-55
2022/05/25 00:06:12;;;;;;;8.30;1.70;;;11.40;99.90;;;;;;5074098;28;20047;-54
2022/05/25 00:08:40;;;;;;;4.53;1.92;;;11.40;99.90;;;;;;5074545;28;20036;-54
2022/05/25 00:11:06;;;;;;;7.03;1.95;;;11.30;99.90;;;;;;5074231;28;20039;-55
2022/05/25 00:13:32;;;;;;;8.02;1.95;;;11.30;99.90;;;;;;5074078;28;20032;-55
2022/05/25 00:15:57;;;;;;;8.50;1.92;;;11.30;99.90;;;;;;5090007;28;20024;-55
2022/05/25 00:18:23;;;;;;;9.00;2.22;;;11.30;99.90;;;;;;5074241;28;20016;-55
2022/05/25 00:20:49;;;;;;;5.15;2.05;;;11.30;99.90;;;;;;5074009;28;20029;-55
2022/05/25 00:23:14;;;;;;;7.68;2.30;;;11.20;99.90;;;;;;5073814;28;20023;-55
2022/05/25 00:25:40;;;;;;;7.32;2.10;;;11.20;99.90;;;;;;5074041;28;20423;-55
2022/05/25 00:28:09;;;;;;;8.80;1.77;;;11.20;99.90;;;;;;5073766;28;20100;-55
2022/05/25 00:30:35;;;;;;;4.28;1.90;;;11.10;99.90;;;;;;5073116;28;20045;-55
2022/05/25 00:33:01;;;;;;;5.90;2.05;;;11.10;99.90;;;;;;5073510;28;20056;-55
2022/05/25 00:35:29;;;;;;;5.03;2.05;;;11.10;99.90;;;;;;5088591;28;20082;-55
2022/05/25 00:37:54;;;;;;;3.60;1.85;;;11.10;99.90;;;;;;5073449;28;20055;-55
2022/05/25 00:40:24;;;;;;;4.50;2.08;;;11.00;99.90;;;;;;5073348;28;20056;-55
2022/05/25 00:42:50;;;;;;;13.98;2.78;;;11.00;99.90;;;;;;5072447;28;20370;-55
2022/05/25 00:45:16;;;;;;;8.43;2.33;;;11.00;99.90;;;;;;5073162;28;20115;-55
2022/05/25 00:47:46;;;;;;;9.23;3.20;;;10.90;99.90;;;;;;5073278;28;20020;-55
2022/05/25 00:50:15;;;;;;;5.38;2.22;;;10.90;99.90;;;;;;5073394;28;20119;-55
2022/05/25 00:52:43;;;;;;;3.42;2.17;;;10.90;99.90;;;;;;5073182;28;20089;-55
2022/05/25 00:55:13;;;;;;;7.07;2.20;;;10.80;99.90;;;;;;5072950;28;20040;-55
2022/05/25 00:57:45;;;;;;;9.60;2.30;;;10.70;99.90;;;;;;5072697;28;20017;-54
2022/05/25 01:00:13;;;;;;;5.93;2.50;;;10.60;99.90;;;;;;5073226;28;20021;-55
2022/05/25 01:02:51;;;;;;;4.97;2.47;;;10.60;99.90;;;;;;5073518;28;20485;-55
2022/05/25 01:05:40;;;;;;;7.55;2.25;;;10.50;99.90;;;;;;5073299;28;20040;-55
2022/05/25 01:08:25;;;;;;;7.60;2.90;;;10.50;99.90;;;;;;5072396;28;20123;-55
2022/05/25 01:11:29;;;;;;;4.85;2.90;;;10.50;99.90;;;;;;5072867;28;20032;-55
2022/05/25 01:14:21;;;;;;;10.20;2.80;;;10.50;99.90;;;;;;5072913;28;20029;-55
2022/05/25 01:17:22;;;;;;;12.35;3.20;;;10.40;99.90;;;;;;5072580;28;20024;-55
2022/05/25 01:19:57;;;;;;;9.27;2.88;;;10.40;99.90;;;;;;5030500;28;20424;-55
2022/05/25 01:22:48;;;;;;;11.57;3.05;;;10.30;99.90;;;;;;5066863;28;20444;-55
2022/05/25 01:25:42;;;;;;;5.78;2.53;;;10.40;99.90;;;;;;5072470;28;20029;-55
2022/05/25 01:28:32;;;;;;;4.28;2.78;;;10.40;99.90;;;;;;5071114;28;20109;-55
2022/05/25 01:31:01;;;;;;;9.65;3.25;;;10.40;99.90;;;;;;5072694;28;20105;-56
2022/05/25 01:33:42;;;;;;;12.10;3.55;;;10.40;99.90;;;;;;5072860;28;20536;-55
2022/05/25 01:36:17;;;;;;;7.43;3.13;;;10.40;99.90;;;;;;5072784;28;20440;-56
2022/05/25 01:38:52;;;;;;;6.40;3.08;;;10.40;99.90;;;;;;5072767;28;20051;-55
2022/05/25 01:41:30;;;;;;;7.97;3.55;;;10.40;99.90;;;;;;5072261;28;20029;-54
2022/05/25 01:44:01;;;;;;;9.43;3.55;;;10.40;99.90;;;;;;5072583;28;20036;-55
2022/05/25 01:46:36;;;;;;;8.40;3.75;;;10.40;99.90;;;;;;5072322;28;20028;-54
2022/05/25 01:49:06;;;;;;;9.40;3.80;;;10.40;99.90;;;;;;5072115;28;20079;-56
2022/05/25 01:51:42;;;;;;;10.10;3.38;;;10.30;99.90;;;;;;5072543;28;20488;-55
2022/05/25 01:54:11;;;;;;;13.73;4.25;;;10.30;99.90;;;;;;5071931;28;20059;-55
2022/05/25 01:56:40;;;;;;;10.30;3.90;;;10.30;99.90;;;;;;5072252;28;20028;-55
2022/05/25 01:59:09;;;;;;;12.30;4.32;;;10.30;99.90;;;;;;5072134;28;20044;-55
2022/05/25 02:01:35;;;;;;;9.43;4.45;;;10.30;99.90;;;;;;5072110;28;20021;-55
2022/05/25 02:04:19;;;;;;;8.55;5.07;;;10.30;99.90;;;;;;5072278;28;20476;-55
2022/05/25 02:07:26;;;;;;;8.23;5.30;;;10.30;99.90;;;;;;5072164;28;20103;-54
2022/05/25 02:10:11;;;;;;;8.05;4.05;;;10.30;99.90;;;;;;5071814;28;20090;-55
2022/05/25 02:12:51;;;;;;;9.32;4.47;;;10.30;99.90;;;;;;5072167;28;20040;-56
2022/05/25 02:15:35;;;;;;;7.18;4.35;;;10.20;99.90;;;;;;5071796;28;20078;-55
2022/05/25 02:18:38;;;;;;;9.98;4.40;;;10.20;99.90;;;;;;5072113;28;20020;-55
2022/05/25 02:21:19;;;;;;;7.22;4.55;;;10.10;99.90;;;;;;5072248;28;20017;-55
2022/05/25 02:23:57;;;;;;;9.93;4.55;;;10.10;99.90;;;;;;5071553;28;20138;-55
2022/05/25 02:26:29;;;;;;;14.77;5.68;;;10.10;99.90;;;;;;5071694;28;20029;-55
2022/05/25 02:29:12;;;;;;;6.93;4.50;;;10.00;99.90;;;;;;5072052;28;20052;-55
2022/05/25 02:31:45;;;;;;;10.90;5.05;;;10.00;99.90;;;;;;5071900;28;20135;-55
2022/05/25 02:34:16;;;;;;;8.38;4.93;;;10.00;99.90;;;;;;5071929;28;20041;-55
2022/05/25 02:36:42;;;;;;;8.77;4.57;;;10.10;99.90;;;;;;5071780;28;20024;-55
2022/05/25 02:39:10;;;;;;;11.65;4.63;;;10.10;99.90;;;;;;5071331;28;20069;-55
2022/05/25 02:41:52;;;;;;;9.90;5.28;;;10.10;99.90;;;;;;5071728;28;20024;-55
2022/05/25 02:44:19;;;;;;;8.63;4.77;;;10.00;99.90;;;;;;5071939;28;20476;-55
2022/05/25 02:46:45;;;;;;;15.30;4.63;;;10.00;99.90;;;;;;5072104;28;20320;-55
2022/05/25 02:49:10;;;;;;;8.45;4.80;;;9.90;99.90;;;;;;5071599;28;20107;-54
2022/05/25 02:51:37;;;;;;;13.13;5.65;;;9.90;99.90;;;;;;5071578;28;20485;-55
2022/05/25 02:54:03;;;;;;;10.32;4.47;;;9.90;99.90;;;;;;5071540;28;20036;-55
2022/05/25 02:56:29;;;;;;;10.73;4.18;;;9.90;99.90;;;;;;5071374;28;20024;-55
2022/05/25 02:58:55;;;;;;;9.10;4.72;;;9.90;99.90;;;;;;5070182;28;20020;-55
2022/05/25 03:01:20;;;;;;;9.93;4.75;;;9.90;99.90;;;;;;5071726;28;20067;-55
2022/05/25 03:03:46;;;;;;;14.23;5.15;;;9.90;99.90;;;;;;5071585;28;20032;-55
2022/05/25 03:06:12;;;;;;;11.57;5.25;;;9.80;99.90;;;;;;5071894;28;20087;-55
2022/05/25 03:08:39;;;;;;;8.77;5.20;;;9.80;99.90;;;;;;5075444;28;20025;-55
2022/05/25 03:11:05;;;;;;;9.68;5.13;;;9.80;99.90;;;;;;5075364;28;20037;-55
2022/05/25 03:13:30;;;;;;;11.02;5.38;;;9.80;99.90;;;;;;5075110;28;20082;-55
2022/05/25 03:16:00;;;;;;;12.20;5.10;;;9.80;99.90;;;;;;5075215;28;20033;-54
2022/05/25 03:18:26;;;;;;;10.63;5.35;;;9.80;99.90;;;;;;5075513;28;20431;-55
2022/05/25 03:20:52;;;;;;;11.18;5.45;;;9.70;99.90;;;;;;5075700;28;20021;-55
2022/05/25 03:23:18;;;;;;;15.63;5.68;;;9.70;99.90;;;;;;5075193;28;20131;-54
2022/05/25 03:25:48;;;;;;;9.00;5.55;;;9.70;99.90;;;;;;5075155;28;20063;-55
2022/05/25 03:28:14;;;;;;;12.80;5.28;;;9.70;99.90;;;;;;5074725;28;20029;-55
2022/05/25 03:30:42;;;;;;;8.80;5.15;;;9.60;99.90;;;;;;5074512;28;20056;-55
2022/05/25 03:33:08;;;;;;;8.98;5.05;;;9.70;99.90;;;;;;5075164;28;20107;-55
2022/05/25 03:35:34;;;;;;;9.85;5.40;;;9.70;99.90;;;;;;5074735;28;20047;-55
2022/05/25 03:38:02;;;;;;;14.15;5.70;;;9.80;99.90;;;;;;5074640;28;20584;-54
2022/05/25 03:40:28;;;;;;;12.68;5.80;;;9.70;99.90;;;;;;5073416;28;20028;-55
2022/05/25 03:42:53;;;;;;;11.23;5.07;;;9.70;99.90;;;;;;5074657;28;20025;-55
2022/05/25 03:45:19;;;;;;;12.30;5.50;;;9.60;99.90;;;;;;5074405;28;20032;-54
2022/05/25 03:47:45;;;;;;;10.85;5.43;;;9.60;99.90;;;;;;5074704;28;20033;-55
2022/05/25 03:50:11;;;;;;;11.88;5.57;;;9.50;99.90;;;;;;5074343;28;20042;-54
2022/05/25 03:52:38;;;;;;;10.82;5.53;;;9.50;99.90;;;;;;5074391;28;20043;-56
2022/05/25 03:55:05;;;;;;;12.50;5.35;;;9.50;99.90;;;;;;5074199;28;20024;-55
2022/05/25 03:57:31;;;;;;;10.65;5.32;;;9.60;99.90;;;;;;5074324;28;20055;-56
2022/05/25 03:59:57;;;;;;;11.75;5.22;;;9.60;99.90;;;;;;5074343;28;20048;-55
2022/05/25 04:02:22;;;;;;;9.90;5.57;;;9.60;99.90;;;;;;5074281;28;20060;-56
2022/05/25 04:05:07;;;;;;;15.27;5.43;;;9.60;99.90;;;;;;5089689;28;20388;-55
2022/05/25 04:07:37;;;;;;;9.68;5.32;;;9.60;99.90;;;;;;5073959;28;20028;-56
2022/05/25 04:10:03;;;;;;;13.45;5.93;;;9.60;99.90;;;;;;5073991;28;20497;-56
2022/05/25 04:12:29;;;;;;;9.10;5.07;;;9.60;99.90;;;;;;5073879;28;20106;-55
2022/05/25 04:14:55;;;;;;;9.98;5.20;;;9.60;99.90;;;;;;5074207;28;20645;-56
2022/05/25 04:17:21;;;;;;;10.82;5.40;;;9.60;99.90;;;;;;5073619;28;20095;-56
2022/05/25 04:19:46;;;;;;;8.73;4.90;;;9.60;99.90;;;;;;5073888;28;20103;-56
2022/05/25 04:22:12;;;;;;;9.20;5.53;;;9.60;99.90;;;;;;5074312;28;20028;-56
2022/05/25 04:24:37;;;;;;;12.65;5.35;;;9.60;99.90;;;;;;5073982;28;20500;-55
2022/05/25 04:27:03;;;;;;;12.05;5.57;;;9.60;99.90;;;;;;5089433;28;20088;-55
2022/05/25 04:29:29;;;;;;;8.88;5.00;;;9.60;99.90;;;;;;5074042;28;20390;-55
2022/05/25 04:31:54;;;;;;;11.02;4.88;;;9.70;99.90;;;;;;5073349;28;20040;-56
2022/05/25 04:34:20;;;;;;;11.30;5.00;;;9.70;99.90;;;;;;5073674;28;20455;-55
2022/05/25 04:36:45;;;;;;;9.85;5.18;;;9.70;99.90;;;;;;5073592;28;20020;-55
2022/05/25 04:39:11;;;;;;;12.55;5.40;;;9.70;99.90;;;;;;5073532;28;20104;-55
2022/05/25 04:41:37;;;;;;;8.70;4.95;;;9.80;99.90;;;;;;5074013;28;20481;-55
2022/05/25 04:44:04;;;;;;;13.98;5.25;;;9.80;99.90;;;;;;5073984;28;20024;-55
2022/05/25 04:46:30;;;;;;;7.13;4.28;;;9.80;99.90;;;;;;5073194;28;20458;-55
2022/05/25 04:48:57;;;;;;;11.43;4.68;;;9.80;99.90;;;;;;5073398;28;20016;-55
2022/05/25 04:51:22;;;;;;;10.73;4.55;;;9.80;99.90;;;;;;5073844;28;20366;-55
2022/05/25 04:53:49;;;;;;;9.70;4.43;;;9.80;99.90;;;;;;5073235;28;20031;-55
2022/05/25 04:58:58;;;;;;;9.85;4.45;;;10.00;99.90;;;;;;5073875;28;20031;-55
2022/05/25 05:01:24;;;;;;;11.60;4.50;;;10.00;99.90;;;;;;5073187;28;20473;-55
2022/05/25 05:03:50;;;;;;;13.02;4.55;;;10.00;99.90;;;;;;5072972;28;20040;-55
2022/05/25 05:06:16;;;;;;;8.93;3.70;;;10.00;99.90;;;;;;5073024;28;20047;-55
2022/05/25 05:08:42;;;;;;;7.50;4.28;;;10.00;99.90;;;;;;5073738;28;20033;-55
2022/05/25 05:11:10;;;;;;;10.38;4.53;;;10.10;99.90;;;;;;5073428;28;20024;-54
2022/05/25 05:13:37;;;;;;;5.43;4.35;;;10.10;99.90;;;;;;5072853;28;20055;-55
2022/05/25 05:16:08;;;;;;;8.27;4.22;;;10.20;99.90;;;;;;5072690;28;20028;-55
2022/05/25 05:18:34;;;;;;;13.13;4.47;;;10.20;99.90;;;;;;5072639;28;20162;-55
2022/05/25 05:21:01;;;;;;;8.27;3.97;;;10.30;99.90;;;;;;5072487;28;20036;-55
2022/05/25 05:23:26;;;;;;;10.93;4.40;;;10.30;99.90;;;;;;5072827;28;20021;-55
2022/05/25 05:25:52;;;;;;;9.82;4.70;;;10.40;99.90;;;;;;5072348;28;20035;-55
2022/05/25 05:28:21;;;;;;;5.88;4.40;;;10.50;99.90;;;;;;5072439;28;20031;-55
2022/05/25 05:30:51;;;;;;;9.02;4.50;;;10.50;99.90;;;;;;5063619;28;20044;-55
2022/05/25 05:33:17;;;;;;;8.10;4.25;;;10.60;99.90;;;;;;5063750;28;20566;-55
2022/05/25 05:35:45;;;;;;;6.25;4.30;;;10.70;99.90;;;;;;5069287;28;20099;-55
2022/05/25 05:38:12;;;;;;;8.15;4.35;;;10.70;99.90;;;;;;5071600;28;20043;-55
2022/05/25 05:40:38;;;;;;;13.07;4.68;;;10.80;99.90;;;;;;5071450;28;20393;-55
2022/05/25 05:43:06;;;;;;;9.82;5.03;;;10.90;99.90;;;;;;5070283;28;20020;-55
2022/05/25 05:45:36;;;;;;;6.03;3.92;;;11.00;99.90;;;;;;5069353;28;20111;-55
2022/05/25 05:48:08;;;;;;;5.55;4.25;;;11.00;99.90;;;;;;5067926;28;20037;-54
2022/05/25 05:50:38;;;;;;;12.23;4.78;;;11.10;99.90;;;;;;5067171;28;20036;-54
2022/05/25 05:53:05;;;;;;;9.60;4.60;;;11.10;99.90;;;;;;5071081;28;20031;-54
2022/05/25 05:55:32;;;;;;;9.88;4.43;;;11.20;99.90;;;;;;5068215;28;20028;-55
2022/05/25 05:57:57;;;;;;;8.75;4.22;;;11.20;99.90;;;;;;5068049;28;20024;-55
2022/05/25 06:00:23;;;;;;;9.77;4.35;;;11.30;99.90;;;;;;5061184;28;20028;-55
2022/05/25 06:02:50;;;;;;;9.70;4.40;;;11.40;99.90;;;;;;5069068;28;20025;-55
2022/05/25 06:05:16;;;;;;;10.38;4.93;;;11.40;99.90;;;;;;5062225;28;20040;-55
2022/05/25 06:07:42;;;;;;;7.53;4.13;;;11.50;99.90;;;;;;5062372;28;20082;-55
2022/05/25 06:10:08;;;;;;;9.85;4.05;;;11.40;99.90;;;;;;5059614;28;20067;-55
2022/05/25 06:12:34;;;;;;;8.73;4.25;;;11.30;99.90;;;;;;5063910;28;20076;-55
2022/05/25 06:19:25;;;;;;;12.32;4.05;;;11.50;99.90;;;;;;5058522;28;20111;-55
2022/05/25 06:20:30;;;;;;;12.82;4.25;;;11.50;99.90;;;;;;5057104;28;20040;-55
2022/05/25 06:22:56;;;;;;;10.70;4.20;;;11.70;99.90;;;;;;5052799;28;20044;-55
2022/05/25 06:25:21;;;;;;;12.65;4.28;;;11.80;99.90;;;;;;5062422;28;20037;-55
2022/05/25 06:27:47;;;;;;;12.23;3.92;;;11.80;99.90;;;;;;5059309;28;20036;-55
2022/05/25 06:30:13;;;;;;;10.55;4.65;;;12.00;99.90;;;;;;5059688;28;20405;-55
2022/05/25 06:32:38;;;;;;;10.52;4.40;;;12.00;99.90;;;;;;5055182;28;20517;-55
2022/05/25 06:35:04;;;;;;;9.30;4.10;;;12.10;99.90;;;;;;5052334;28;20362;-55
2022/05/25 06:37:30;;;;;;;6.88;3.58;;;12.20;99.90;;;;;;5055188;28;20036;-55
2022/05/25 06:39:56;;;;;;;11.98;4.35;;;12.20;99.90;;;;;;5052814;28;20032;-55
2022/05/25 06:42:21;;;;;;;8.95;4.05;;;12.30;99.90;;;;;;5063407;28;20377;-54
2022/05/25 06:44:47;;;;;;;6.97;3.35;;;12.70;99.90;;;;;;5058968;28;20040;-55
2022/05/25 06:47:16;;;;;;;7.25;3.60;;;13.80;99.90;;;;;;5067756;28;20058;-54
2022/05/25 06:49:42;;;;;;;7.90;2.95;;;14.80;99.90;;;;;;5061060;28;20916;-53
2022/05/25 06:52:10;;;;;;;7.10;2.55;;;15.70;99.90;;;;;;5064717;28;20043;-53
2022/05/25 06:54:36;;;;;;;5.20;2.70;;;16.40;99.90;;;;;;5061429;28;20031;-54
2022/05/25 06:57:02;;;;;;;4.13;2.10;;;16.40;99.90;;;;;;5066920;28;20401;-54
2022/05/25 06:59:27;;;;;;;10.48;2.72;;;16.70;99.90;;;;;;5059152;28;20055;-54
2022/05/25 07:01:53;;;;;;;7.05;2.53;;;17.00;99.90;;;;;;5060618;28;20025;-54
2022/05/25 07:04:19;;;;;;;8.20;3.03;;;17.40;99.90;;;;;;5054189;28;20036;-54
2022/05/25 07:06:45;;;;;;;5.65;2.55;;;17.60;99.90;;;;;;5054443;28;20040;-54
2022/05/25 07:09:12;;;;;;;4.20;2.28;;;17.60;99.90;;;;;;5057466;28;20451;-54
2022/05/25 07:11:38;;;;;;;8.90;2.45;;;18.10;99.90;;;;;;5055075;28;20040;-54
2022/05/25 07:14:05;;;;;;;5.10;2.05;;;18.50;99.90;;;;;;5052438;28;20033;-54
2022/05/25 07:16:31;;;;;;;7.22;2.40;;;18.40;99.90;;;;;;5054815;28;20024;-54
2022/05/25 07:18:57;;;;;;;5.18;2.20;;;18.10;99.90;;;;;;5050068;28;20024;-54
2022/05/25 07:21:26;;;;;;;6.97;2.25;;;18.20;99.90;;;;;;5057790;28;20049;-54
2022/05/25 07:23:53;;;;;;;7.28;2.28;;;18.40;99.90;;;;;;5052657;28;20089;-54
2022/05/25 07:26:21;;;;;;;6.65;2.55;;;18.40;99.90;;;;;;5059433;28;20036;-54
2022/05/25 07:28:47;;;;;;;4.60;2.50;;;17.40;99.90;;;;;;5054903;28;20489;-54
2022/05/25 07:31:21;;;;;;;7.53;2.38;;;17.40;99.90;;;;;;5051463;28;20171;-54
2022/05/25 07:33:51;;;;;;;7.18;2.42;;;17.10;99.90;;;;;;5059349;28;20121;-54
2022/05/25 07:36:16;;;;;;;6.78;2.92;;;16.90;99.90;;;;;;5060595;28;20040;-54
2022/05/25 07:38:49;;;;;;;8.15;2.53;;;16.40;99.90;;;;;;5061391;28;20028;-54
2022/05/25 07:41:17;;;;;;;;;;;16.40;99.90;;;;;;5059022;28;20081;-54
2022/05/25 07:43:44;;;;;;;9.20;2.63;;;16.30;99.90;;;;;;5056069;28;20003;-54
2022/05/25 07:46:10;;;;;;;7.10;3.00;;;17.00;99.90;;;;;;5061487;28;20389;-54
2022/05/25 07:48:36;;;;;;;5.65;2.50;;;17.70;99.90;;;;;;5056592;28;20029;-54
2022/05/25 07:51:03;;;;;;;8.38;3.03;;;18.40;99.90;;;;;;5056978;28;20661;-54
2022/05/25 07:56:15;;;;;;;9.25;2.40;;;19.60;99.90;;;;;;5056102;28;20035;-54
2022/05/25 07:58:41;;;;;;;6.57;2.50;;;19.30;99.90;;;;;;5051893;28;20025;-54
2022/05/25 08:01:12;;;;;;;6.10;2.42;;;18.80;99.90;;;;;;5055883;28;20036;-54
2022/05/25 08:06:23;;;;;;;6.18;2.40;;;19.10;99.90;;;;;;5057677;28;20152;-54
2022/05/25 08:08:48;;;;;;;7.53;1.77;;;19.30;99.90;;;;;;5057892;28;20035;-54
2022/05/25 08:11:17;;;;;;;4.38;1.38;;;19.50;99.90;;;;;;5058655;28;20505;-54
2022/05/25 08:13:48;;;;;;;5.03;1.45;;;18.70;99.90;;;;;;5054842;28;20370;-54
2022/05/25 08:16:14;;;;;;;4.47;1.40;;;18.70;99.90;;;;;;5053175;28;20115;-54
2022/05/25 08:18:39;;;;;;;4.55;1.30;;;18.70;99.90;;;;;;5050635;28;20536;-54
2022/05/25 08:21:06;;;;;;;6.32;1.60;;;19.10;99.90;;;;;;5070119;28;20028;-53
2022/05/25 08:23:32;;;;;;;8.77;1.45;;;19.90;99.90;;;;;;5056880;28;20323;-54
2022/05/25 08:25:57;;;;;;;3.15;1.10;;;19.90;99.90;;;;;;5055513;28;20413;-54
2022/05/25 08:28:23;;;;;;;5.68;1.50;;;20.20;99.90;;;;;;5050308;28;20039;-54
2022/05/25 08:30:49;;;;;;;5.85;1.35;;;19.70;99.90;;;;;;5053589;28;20158;-54
2022/05/25 08:33:20;;;;;;;6.78;1.63;;;19.10;99.90;;;;;;5062140;28;20077;-53
2022/05/25 08:35:46;;;;;;;7.90;1.65;;;19.60;99.90;;;;;;5059943;28;20063;-54
2022/05/25 08:38:11;;;;;;;4.47;1.27;;;19.20;99.90;;;;;;5058597;28;20447;-52
2022/05/25 08:40:37;;;;;;;5.93;1.88;;;19.20;99.90;;;;;;5051350;28;20105;-52
2022/05/25 08:43:23;;;;;;;4.15;1.92;;;19.00;99.90;;;;;;5052048;28;20083;-52
2022/05/25 08:45:57;;;;;;;7.63;1.90;;;19.10;99.90;;;;;;5057219;28;20035;-52
2022/05/25 08:48:24;;;;;;;3.83;1.38;;;19.00;99.90;;;;;;5051563;28;20047;-52
2022/05/25 08:50:54;;;;;;;4.60;0.98;;;20.00;99.90;;;;;;5050691;28;20044;-52
2022/05/25 08:53:23;;;;;;;3.15;1.00;;;20.30;99.90;;;;;;5053660;28;20035;-51
2022/05/25 08:56:03;;;;;;;5.80;1.25;;;20.70;99.90;;;;;;5051419;28;20035;-52
2022/05/25 08:58:52;;;;;;;5.40;1.58;;;21.30;99.90;;;;;;5050110;28;20078;-52
2022/05/25 09:01:35;;;;;;;3.10;0.95;;;21.00;99.90;;;;;;5047481;28;20036;-52
2022/05/25 09:04:24;;;;;;;5.40;1.08;;;21.10;99.90;;;;;;5047281;28;20024;-52
2022/05/25 09:07:06;;;;;;;3.90;0.90;;;21.00;99.90;;;;;;5037225;28;20045;-52
2022/05/25 09:15:07;;;;;;;3.50;0.90;;;19.10;99.90;;;;;;5032632;28;20466;-55
2022/05/25 09:17:51;;;;;;;2.63;0.75;;;18.90;99.90;;;;;;5017696;28;20049;-56
2022/05/25 09:20:21;;;;;;;2.80;0.70;;;19.70;99.90;;;;;;5014678;28;20054;-52
2022/05/25 09:22:47;;;;;;;2.75;0.88;;;19.50;99.90;;;;;;5009635;28;20504;-52
2022/05/25 09:25:14;;;;;;;3.63;0.80;;;19.70;99.90;;;;;;4975490;28;20065;-53
2022/05/25 09:27:52;;;;;;;4.47;0.77;;;20.50;99.50;;;;;;4974593;28;20050;-53
2022/05/25 09:30:18;;;;;;;3.50;0.70;;;20.90;99.30;;;;;;4974846;28;20114;-53
2022/05/25 09:32:50;;;;;;;5.10;1.00;;;21.00;98.70;;;;;;5001819;28;20038;-54
2022/05/25 09:35:31;;;;;;;1.83;0.73;;;20.10;99.60;;;;;;4972102;28;20030;-53
2022/05/25 09:38:03;;;;;;;4.07;1.00;;;20.90;99.60;;;;;;4969797;28;20050;-54
2022/05/25 09:40:40;;;;;;;3.40;1.42;;;21.70;96.30;;;;;;4973067;28;20031;-53
2022/05/25 09:43:11;;;;;;;4.50;1.00;;;21.20;98.20;;;;;;4975399;28;20121;-54
2022/05/25 09:45:49;;;;;;;5.03;0.98;;;20.90;99.10;;;;;;4976954;28;20023;-53
2022/05/25 09:48:30;;;;;;;2.97;0.95;;;20.70;99.00;;;;;;4966651;28;20026;-54
2022/05/25 09:51:29;;;;;;;3.08;1.02;;;20.20;98.60;;;;;;4973942;28;20623;-54
2022/05/25 09:54:02;;;;;;;4.10;0.90;;;19.70;99.90;;;;;;4973511;28;20396;-53
2022/05/25 09:56:37;;;;;;;2.70;0.77;;;20.20;98.90;;;;;;4974462;28;20053;-53
2022/05/25 09:59:13;;;;;;;3.70;0.77;;;20.70;97.70;;;;;;4978328;28;20511;-53
2022/05/25 10:01:44;;;;;;;5.35;0.70;;;21.30;97.20;;;;;;4979663;28;20499;-53
2022/05/25 10:04:36;;;;;;;4.50;0.80;;;21.20;96.40;;;;;;4973460;28;20031;-53
2022/05/25 10:07:17;;;;;;;2.30;0.60;;;21.50;97.60;;;;;;4973367;28;20046;-53
2022/05/25 10:09:51;;;;;;;4.57;0.73;;;21.20;95.50;;;;;;4969934;28;20038;-53
2022/05/25 10:12:24;;;;;;;3.10;0.70;;;20.10;96.60;;;;;;4987052;28;20199;-53
2022/05/25 10:15:05;;;;;;;4.38;0.95;;;19.20;98.60;;;;;;4995600;28;20495;-53
2022/05/25 10:17:39;;;;;;;3.00;0.85;;;18.50;99.60;;;;;;4995015;28;20038;-53
2022/05/25 10:20:30;;;;;;;4.25;0.90;;;18.30;99.80;;;;;;5002271;28;20057;-53
2022/05/25 10:23:21;;;;;;;4.55;0.90;;;18.80;99.90;;;;;;4996144;28;20375;-53
2022/05/25 10:25:53;;;;;;;3.22;0.70;;;20.30;99.30;;;;;;4991557;28;20038;-53
2022/05/25 10:28:27;;;;;;;3.45;0.77;;;20.40;97.60;;;;;;4986068;28;20030;-53
2022/05/25 10:36:58;;;;;;;2.67;0.68;;;18.50;99.90;;;;;;4989717;28;20100;-53
2022/05/25 10:39:33;;;;;;;5.40;0.75;;;18.80;99.90;;;;;;4988717;28;20030;-53
2022/05/25 10:42:11;;;;;;;1.58;0.80;;;19.20;99.50;;;;;;4985401;28;20029;-53
2022/05/25 10:45:08;;;;;;;3.33;0.75;;;19.60;99.40;;;;;;4986044;28;20023;-53
2022/05/25 10:47:57;;;;;;;3.10;0.80;;;19.80;98.70;;;;;;4992219;28;20039;-53
2022/05/25 10:50:57;;;;;;;2.08;0.50;;;20.40;98.60;;;;;;4989847;28;20406;-53
2022/05/25 10:56:40;;;;;;;2.17;0.60;;;19.80;97.30;;;;;;4987369;28;20809;-53
2022/05/25 10:59:30;;;;;;;1.50;0.53;;;20.40;97.90;;;;;;4985498;28;20026;-53
2022/05/25 11:02:15;;;;;;;1.15;0.50;;;20.50;95.40;;;;;;4989775;28;20080;-53
2022/05/25 11:05:09;;;;;;;3.78;0.60;;;20.80;95.10;;;;;;4993247;28;20053;-53
2022/05/25 11:07:36;;;;;;;3.47;0.60;;;20.80;94.70;;;;;;4990235;28;20034;-53
2022/05/25 11:10:46;;;;;;;3.47;0.60;;;20.30;94.60;;;;;;4990716;28;20046;-53
2022/05/25 11:13:15;;;;;;;2.17;0.45;;;19.40;95.60;;;;;;4999967;28;20117;-53
2022/05/25 11:15:48;;;;;;;4.40;0.65;;;18.50;97.20;;;;;;4988759;28;20121;-53
2022/05/25 11:18:40;;;;;;;5.47;0.70;;;18.10;97.30;;;;;;4978754;28;20034;-53
2022/05/25 11:21:37;;;;;;;3.50;0.60;;;18.10;97.60;;;;;;4992276;28;20045;-53
2022/05/25 11:24:23;;;;;;;2.90;0.50;;;18.20;97.40;;;;;;4991388;28;20068;-53
2022/05/25 11:27:11;;;;;;;2.47;0.70;;;18.30;97.10;;;;;;4989992;28;20037;-53
2022/05/25 11:30:15;;;;;;;3.78;0.60;;;18.40;97.70;;;;;;4994727;28;20038;-53
2022/05/25 11:33:10;;;;;;;1.85;0.70;;;18.70;96.00;;;;;;4990586;28;20031;-53
2022/05/25 11:35:52;;;;;;;4.15;0.93;;;19.50;95.90;;;;;;4982479;28;20423;-53
2022/05/25 11:38:40;;;;;;;1.52;0.60;;;19.60;96.00;;;;;;4979113;28;20078;-54
2022/05/25 11:41:21;;;;;;;2.50;0.70;;;19.80;96.10;;;;;;4982146;28;20026;-53
2022/05/25 11:43:58;;;;;;;3.08;0.80;;;19.80;96.30;;;;;;4990606;28;20026;-53
2022/05/25 11:46:45;;;;;;;0.98;0.40;;;19.70;95.50;;;;;;4991390;28;20030;-53
2022/05/25 11:49:13;;;;;;;6.07;0.93;;;18.90;95.40;;;;;;4991868;28;20030;-53
2022/05/25 11:52:07;;;;;;;2.50;0.90;;;18.30;97.60;;;;;;5006138;28;20117;-53
2022/05/25 11:54:42;;;;;;;5.90;1.00;;;18.10;98.40;;;;;;4992581;28;20034;-53
2022/05/25 11:57:39;;;;;;;6.22;0.80;;;18.00;98.80;;;;;;5008651;28;20109;-53
2022/05/25 12:00:26;;;;;;;5.20;0.70;;;19.00;98.50;;;;;;4993101;28;20048;-53
2022/05/25 12:03:12;;;;;;;4.18;0.90;;;20.70;96.50;;;;;;4991818;28;20026;-54
2022/05/25 12:05:41;;;;;;;4.43;0.57;;;21.60;96.10;;;;;;4982364;28;20080;-53
2022/05/25 12:08:53;;;;;;;3.60;0.60;;;21.50;94.00;;;;;;4992583;28;20026;-53
2022/05/25 12:11:42;;;;;;;3.75;0.85;;;19.90;95.50;;;;;;5008449;28;20034;-53
2022/05/25 12:14:39;;;;;;;3.10;0.70;;;19.00;96.80;;;;;;4989629;28;20396;-53
2022/05/25 12:17:24;;;;;;;2.80;0.68;;;18.70;98.10;;;;;;4990506;28;20051;-53
2022/05/25 12:19:53;;;;;;;3.40;0.65;;;19.00;98.30;;;;;;5004197;28;20064;-53
2022/05/25 12:22:23;;;;;;;3.17;0.80;;;19.10;97.80;;;;;;5004742;28;20027;-53
2022/05/25 12:24:53;;;;;;;4.13;0.80;;;19.20;98.70;;;;;;4991385;28;20037;-53
2022/05/25 12:27:25;;;;;;;3.63;0.90;;;19.90;97.30;;;;;;4991264;28;20483;-53
2022/05/25 12:29:54;;;;;;;4.15;0.80;;;20.00;97.30;;;;;;4991381;28;20022;-53
2022/05/25 12:32:22;;;;;;;5.05;1.00;;;19.60;97.50;;;;;;4991912;28;20562;-53
2022/05/25 12:34:52;;;;;;;5.43;0.80;;;19.10;97.70;;;;;;4991088;28;20030;-53
2022/05/25 12:37:33;;;;;;;5.93;0.88;;;18.70;99.10;;;;;;4991913;28;20022;-53
2022/05/25 12:40:00;;;;;;;5.65;0.77;;;19.20;99.70;;;;;;4992323;28;20049;-53
2022/05/25 12:42:26;;;;;;;8.00;0.75;;;19.70;97.60;;;;;;4992099;28;20049;-53
2022/05/25 12:51:09;;;;;;;3.75;0.50;;;19.70;95.90;;;;;;4983327;28;20114;-53
2022/05/25 12:53:46;;;;;;;2.35;0.60;;;20.60;94.40;;;;;;4986560;28;20030;-53
2022/05/25 12:56:18;;;;;;;5.30;0.80;;;20.60;93.90;;;;;;4988079;28;20092;-53
2022/05/25 12:58:46;;;;;;;2.30;0.60;;;21.10;93.20;;;;;;4991787;28;20122;-53
2022/05/25 13:01:27;;;;;;;2.20;0.55;;;21.10;93.00;;;;;;4980402;28;20074;-53
2022/05/25 13:03:56;;;;;;;4.72;0.63;;;21.20;93.40;;;;;;4975879;28;20499;-53
2022/05/25 13:06:27;;;;;;;5.10;0.70;;;21.00;94.00;;;;;;4990011;28;20069;-53
2022/05/25 13:08:53;;;;;;;4.47;0.68;;;20.80;94.50;;;;;;4991760;28;20070;-53
2022/05/25 13:11:34;;;;;;;3.35;0.50;;;20.30;94.00;;;;;;4990553;28;20026;-53
2022/05/25 13:14:03;;;;;;;2.53;0.80;;;19.70;94.80;;;;;;4991432;28;20053;-53
2022/05/25 13:16:40;;;;;;;4.05;0.60;;;19.50;94.90;;;;;;4991469;28;20137;-53
2022/05/25 13:19:33;;;;;;;5.70;0.70;;;19.60;95.00;;;;;;4990672;28;20034;-53
2022/05/25 13:22:10;;;;;;;2.35;0.82;;;19.40;94.90;;;;;;4987862;28;20026;-53
2022/05/25 13:25:02;;;;;;;6.50;1.00;;;19.30;95.80;;;;;;4991652;28;20044;-53
2022/05/25 13:27:30;;;;;;;2.80;0.60;;;19.60;95.60;;;;;;4989615;28;20041;-53
2022/05/25 13:30:24;;;;;;;5.50;0.82;;;19.40;94.80;;;;;;4990212;28;20065;-54
2022/05/25 13:33:19;;;;;;;3.58;0.43;;;19.50;95.00;;;;;;4977523;28;20031;-53
2022/05/25 13:35:53;;;;;;;3.63;0.50;;;19.30;94.20;;;;;;4990490;28;20547;-53
2022/05/25 13:38:25;;;;;;;2.50;0.55;;;18.70;95.00;;;;;;4990677;28;20101;-53
2022/05/25 13:41:19;;;;;;;4.43;0.70;;;18.80;96.00;;;;;;5006382;28;20384;-53
2022/05/25 13:43:53;;;;;;;2.33;0.52;;;18.70;95.90;;;;;;4989959;28;20038;-53
2022/05/25 13:46:45;;;;;;;3.35;0.70;;;19.00;96.30;;;;;;4991528;28;20061;-53
2022/05/25 13:49:31;;;;;;;2.63;0.50;;;19.30;95.50;;;;;;4991325;28;20089;-53